sensor_id;sensor_type;location;lat;lon;timestamp;pressure;altitude;pressure_sealevel;temperature;humidity
78016;BME280;67223;51.102;5.882;2023-10-13T00:01:45;101293.59;;;17.48;100.00
78016;BME280;67223;51.102;5.882;2023-10-13T00:04:12;101285.78;;;17.45;100.00
78016;BME280;67223;51.102;5.882;2023-10-13T00:06:37;101283.41;;;17.42;100.00
78016;BME280;67223;51.102;5.882;2023-10-13T00:09:03;101284.41;;;17.41;100.00
78016;BME280;67223;51.102;5.882;2023-10-13T00:11:29;101288.50;;;17.45;100.00
78016;BME280;67223;51.102;5.882;2023-10-13T00:13:55;101284.78;;;17.46;100.00
78016;BME280;67223;51.102;5.882;2023-10-13T00:16:21;101283.41;;;17.42;100.00
78016;BME280;67223;51.102;5.882;2023-10-13T00:18:48;101280.72;;;17.42;100.00
78016;BME280;67223;51.102;5.882;2023-10-13T00:21:14;101281.41;;;17.44;100.00
78016;BME280;67223;51.102;5.882;2023-10-13T00:24:06;101282.94;;;17.46;100.00
78016;BME280;67223;51.102;5.882;2023-10-13T00:26:37;101275.00;;;17.45;100.00
78016;BME280;67223;51.102;5.882;2023-10-13T00:29:03;101277.53;;;17.46;100.00
78016;BME280;67223;51.102;5.882;2023-10-13T00:31:38;101274.69;;;17.48;100.00
78016;BME280;67223;51.102;5.882;2023-10-13T00:34:08;101272.50;;;17.51;100.00
78016;BME280;67223;51.102;5.882;2023-10-13T00:36:54;101279.91;;;17.49;100.00
78016;BME280;67223;51.102;5.882;2023-10-13T00:39:39;101267.78;;;17.53;100.00
78016;BME280;67223;51.102;5.882;2023-10-13T00:42:14;101261.88;;;17.50;100.00
78016;BME280;67223;51.102;5.882;2023-10-13T00:44:49;101256.47;;;17.50;100.00
78016;BME280;67223;51.102;5.882;2023-10-13T00:47:18;101260.50;;;17.46;100.00
78016;BME280;67223;51.102;5.882;2023-10-13T00:50:04;101256.41;;;17.42;100.00
78016;BME280;67223;51.102;5.882;2023-10-13T00:52:30;101252.03;;;17.41;100.00
78016;BME280;67223;51.102;5.882;2023-10-13T00:54:58;101250.31;;;17.40;100.00
78016;BME280;67223;51.102;5.882;2023-10-13T00:57:25;101250.50;;;17.38;100.00
78016;BME280;67223;51.102;5.882;2023-10-13T00:59:57;101239.16;;;17.35;100.00
78016;BME280;67223;51.102;5.882;2023-10-13T01:02:23;101241.84;;;17.35;100.00
78016;BME280;67223;51.102;5.882;2023-10-13T01:05:02;101239.34;;;17.33;100.00
78016;BME280;67223;51.102;5.882;2023-10-13T01:07:28;101234.09;;;17.32;100.00
78016;BME280;67223;51.102;5.882;2023-10-13T01:09:53;101224.44;;;17.29;100.00
78016;BME280;67223;51.102;5.882;2023-10-13T01:12:19;101220.22;;;17.27;100.00
78016;BME280;67223;51.102;5.882;2023-10-13T01:14:45;101224.75;;;17.26;100.00
78016;BME280;67223;51.102;5.882;2023-10-13T01:17:11;101217.50;;;17.27;100.00
78016;BME280;67223;51.102;5.882;2023-10-13T01:19:37;101215.97;;;17.24;100.00
78016;BME280;67223;51.102;5.882;2023-10-13T01:22:10;101209.72;;;17.23;100.00
78016;BME280;67223;51.102;5.882;2023-10-13T01:24:36;101210.56;;;17.24;100.00
78016;BME280;67223;51.102;5.882;2023-10-13T01:27:06;101206.00;;;17.25;100.00
78016;BME280;67223;51.102;5.882;2023-10-13T01:29:50;101192.53;;;17.25;100.00
78016;BME280;67223;51.102;5.882;2023-10-13T01:32:24;101195.41;;;17.23;100.00
78016;BME280;67223;51.102;5.882;2023-10-13T01:34:50;101197.91;;;17.25;100.00
78016;BME280;67223;51.102;5.882;2023-10-13T01:37:20;101200.81;;;17.23;100.00
78016;BME280;67223;51.102;5.882;2023-10-13T01:39:47;101191.84;;;17.23;100.00
78016;BME280;67223;51.102;5.882;2023-10-13T01:42:15;101192.53;;;17.25;100.00
78016;BME280;67223;51.102;5.882;2023-10-13T01:44:45;101184.28;;;17.26;100.00
78016;BME280;67223;51.102;5.882;2023-10-13T01:47:10;101179.88;;;17.25;100.00
78016;BME280;67223;51.102;5.882;2023-10-13T01:49:37;101177.03;;;17.27;100.00
78016;BME280;67223;51.102;5.882;2023-10-13T01:52:13;101174.19;;;17.28;100.00
78016;BME280;67223;51.102;5.882;2023-10-13T01:54:43;101175.00;;;17.29;100.00
78016;BME280;67223;51.102;5.882;2023-10-13T01:57:10;101171.28;;;17.30;100.00
78016;BME280;67223;51.102;5.882;2023-10-13T01:59:49;101164.19;;;17.29;100.00
78016;BME280;67223;51.102;5.882;2023-10-13T02:02:15;101162.53;;;17.28;100.00
78016;BME280;67223;51.102;5.882;2023-10-13T02:04:54;101149.69;;;17.30;100.00
78016;BME280;67223;51.102;5.882;2023-10-13T02:07:26;101150.41;;;17.32;100.00
78016;BME280;67223;51.102;5.882;2023-10-13T02:10:00;101136.75;;;17.33;100.00
78016;BME280;67223;51.102;5.882;2023-10-13T02:12:29;101141.97;;;17.35;100.00
78016;BME280;67223;51.102;5.882;2023-10-13T02:15:02;101125.75;;;17.35;100.00
78016;BME280;67223;51.102;5.882;2023-10-13T02:17:30;101128.16;;;17.38;100.00
78016;BME280;67223;51.102;5.882;2023-10-13T02:20:06;101133.56;;;17.38;100.00
78016;BME280;67223;51.102;5.882;2023-10-13T02:22:33;101124.28;;;17.40;100.00
78016;BME280;67223;51.102;5.882;2023-10-13T02:24:59;101115.19;;;17.41;100.00
78016;BME280;67223;51.102;5.882;2023-10-13T02:27:33;101111.28;;;17.44;100.00
78016;BME280;67223;51.102;5.882;2023-10-13T02:30:07;101115.03;;;17.43;100.00
78016;BME280;67223;51.102;5.882;2023-10-13T02:32:38;101117.53;;;17.44;100.00
78016;BME280;67223;51.102;5.882;2023-10-13T02:35:05;101110.28;;;17.45;100.00
78016;BME280;67223;51.102;5.882;2023-10-13T02:37:33;101107.44;;;17.46;100.00
78016;BME280;67223;51.102;5.882;2023-10-13T02:40:01;101097.47;;;17.47;100.00
78016;BME280;67223;51.102;5.882;2023-10-13T02:42:26;101097.47;;;17.47;100.00
78016;BME280;67223;51.102;5.882;2023-10-13T02:44:52;101093.09;;;17.46;100.00
78016;BME280;67223;51.102;5.882;2023-10-13T02:47:21;101091.22;;;17.46;100.00
78016;BME280;67223;51.102;5.882;2023-10-13T02:49:49;101089.53;;;17.45;100.00
78016;BME280;67223;51.102;5.882;2023-10-13T02:52:14;101077.88;;;17.45;100.00
78016;BME280;67223;51.102;5.882;2023-10-13T02:54:41;101072.50;;;17.45;100.00
78016;BME280;67223;51.102;5.882;2023-10-13T02:57:13;101063.38;;;17.46;100.00
78016;BME280;67223;51.102;5.882;2023-10-13T02:59:41;101071.34;;;17.47;100.00
78016;BME280;67223;51.102;5.882;2023-10-13T03:02:14;101068.63;;;17.47;100.00
78016;BME280;67223;51.102;5.882;2023-10-13T03:04:54;101065.94;;;17.47;100.00
78016;BME280;67223;51.102;5.882;2023-10-13T03:07:27;101058.69;;;17.48;100.00
78016;BME280;67223;51.102;5.882;2023-10-13T03:09:57;101054.13;;;17.48;100.00
78016;BME280;67223;51.102;5.882;2023-10-13T03:12:23;101044.34;;;17.47;100.00
78016;BME280;67223;51.102;5.882;2023-10-13T03:14:50;101032.69;;;17.47;100.00
78016;BME280;67223;51.102;5.882;2023-10-13T03:17:31;101028.13;;;17.47;100.00
78016;BME280;67223;51.102;5.882;2023-10-13T03:19:59;101025.25;;;17.49;100.00
78016;BME280;67223;51.102;5.882;2023-10-13T03:22:25;101016.31;;;17.48;100.00
78016;BME280;67223;51.102;5.882;2023-10-13T03:25:01;101015.47;;;17.48;100.00
78016;BME280;67223;51.102;5.882;2023-10-13T03:27:34;101023.22;;;17.51;100.00
78016;BME280;67223;51.102;5.882;2023-10-13T03:30:14;101022.22;;;17.52;100.00
78016;BME280;67223;51.102;5.882;2023-10-13T03:32:40;101019.34;;;17.53;100.00
78016;BME280;67223;51.102;5.882;2023-10-13T03:35:09;101010.09;;;17.56;100.00
78016;BME280;67223;51.102;5.882;2023-10-13T03:37:38;101016.50;;;17.55;100.00
78016;BME280;67223;51.102;5.882;2023-10-13T03:42:32;101010.09;;;17.56;100.00
78016;BME280;67223;51.102;5.882;2023-10-13T03:44:57;101002.69;;;17.58;100.00
78016;BME280;67223;51.102;5.882;2023-10-13T03:47:23;100993.41;;;17.60;100.00
78016;BME280;67223;51.102;5.882;2023-10-13T03:49:57;101002.38;;;17.61;100.00
78016;BME280;67223;51.102;5.882;2023-10-13T03:52:41;100993.91;;;17.64;100.00
78016;BME280;67223;51.102;5.882;2023-10-13T03:55:07;100985.50;;;17.67;100.00
78016;BME280;67223;51.102;5.882;2023-10-13T03:57:33;100987.50;;;17.65;100.00
78016;BME280;67223;51.102;5.882;2023-10-13T03:59:59;100980.75;;;17.61;100.00
78016;BME280;67223;51.102;5.882;2023-10-13T04:05:08;100964.88;;;17.58;100.00
78016;BME280;67223;51.102;5.882;2023-10-13T04:07:35;100958.63;;;17.57;100.00
78016;BME280;67223;51.102;5.882;2023-10-13T04:10:00;100957.94;;;17.55;100.00
78016;BME280;67223;51.102;5.882;2023-10-13T04:12:44;100949.81;;;17.55;100.00
78016;BME280;67223;51.102;5.882;2023-10-13T04:15:28;100949.97;;;17.54;100.00
78016;BME280;67223;51.102;5.882;2023-10-13T04:18:08;100952.38;;;17.57;100.00
78016;BME280;67223;51.102;5.882;2023-10-13T04:20:58;100950.50;;;17.57;100.00
78016;BME280;67223;51.102;5.882;2023-10-13T04:23:33;100943.25;;;17.58;100.00
78016;BME280;67223;51.102;5.882;2023-10-13T04:26:18;100939.72;;;17.57;100.00
78016;BME280;67223;51.102;5.882;2023-10-13T04:28:47;100944.28;;;17.57;100.00
78016;BME280;67223;51.102;5.882;2023-10-13T04:31:18;100945.97;;;17.58;100.00
78016;BME280;67223;51.102;5.882;2023-10-13T04:34:09;100935.84;;;17.60;100.00
78016;BME280;67223;51.102;5.882;2023-10-13T04:36:44;100947.34;;;17.62;100.00
78016;BME280;67223;51.102;5.882;2023-10-13T04:39:20;100934.00;;;17.60;100.00
78016;BME280;67223;51.102;5.882;2023-10-13T04:41:54;100938.22;;;17.63;100.00
78016;BME280;67223;51.102;5.882;2023-10-13T04:44:20;100931.78;;;17.64;100.00
78016;BME280;67223;51.102;5.882;2023-10-13T04:47:03;100944.28;;;17.65;100.00
78016;BME280;67223;51.102;5.882;2023-10-13T04:49:31;100941.59;;;17.65;100.00
78016;BME280;67223;51.102;5.882;2023-10-13T04:52:01;100938.72;;;17.67;100.00
78016;BME280;67223;51.102;5.882;2023-10-13T04:54:37;100942.28;;;17.67;100.00
78016;BME280;67223;51.102;5.882;2023-10-13T04:57:21;100934.34;;;17.66;100.00
78016;BME280;67223;51.102;5.882;2023-10-13T05:00:06;100940.44;;;17.68;100.00
78016;BME280;67223;51.102;5.882;2023-10-13T05:02:36;100938.56;;;17.68;100.00
78016;BME280;67223;51.102;5.882;2023-10-13T05:05:03;100930.63;;;17.67;100.00
78016;BME280;67223;51.102;5.882;2023-10-13T05:07:48;100936.88;;;17.67;100.00
78016;BME280;67223;51.102;5.882;2023-10-13T05:10:34;100943.97;;;17.68;100.00
78016;BME280;67223;51.102;5.882;2023-10-13T05:13:20;100945.63;;;17.69;100.00
78016;BME280;67223;51.102;5.882;2023-10-13T05:16:04;100943.97;;;17.68;100.00
78016;BME280;67223;51.102;5.882;2023-10-13T05:18:48;100947.34;;;17.70;100.00
78016;BME280;67223;51.102;5.882;2023-10-13T05:21:32;100935.69;;;17.70;100.00
78016;BME280;67223;51.102;5.882;2023-10-13T05:24:16;100941.09;;;17.70;100.00
78016;BME280;67223;51.102;5.882;2023-10-13T05:27:00;100921.84;;;17.64;100.00
78016;BME280;67223;51.102;5.882;2023-10-13T05:29:45;100922.69;;;17.65;100.00
78016;BME280;67223;51.102;5.882;2023-10-13T05:32:29;100910.19;;;17.64;100.00
78016;BME280;67223;51.102;5.882;2023-10-13T05:35:14;100910.19;;;17.64;100.00
78016;BME280;67223;51.102;5.882;2023-10-13T05:37:58;100889.28;;;17.66;100.00
78016;BME280;67223;51.102;5.882;2023-10-13T05:40:59;100886.91;;;17.63;100.00
78016;BME280;67223;51.102;5.882;2023-10-13T05:43:43;100876.09;;;17.71;100.00
78016;BME280;67223;51.102;5.882;2023-10-13T05:46:27;100880.66;;;17.71;100.00
78016;BME280;67223;51.102;5.882;2023-10-13T05:48:54;100883.38;;;17.71;100.00
78016;BME280;67223;51.102;5.882;2023-10-13T05:51:29;100894.34;;;17.61;100.00
78016;BME280;67223;51.102;5.882;2023-10-13T05:54:01;100877.44;;;17.59;100.00
78016;BME280;67223;51.102;5.882;2023-10-13T05:59:27;100853.81;;;17.61;100.00
78016;BME280;67223;51.102;5.882;2023-10-13T06:02:12;100857.03;;;17.64;100.00
78016;BME280;67223;51.102;5.882;2023-10-13T06:04:57;100816.50;;;17.64;100.00
78016;BME280;67223;51.102;5.882;2023-10-13T06:07:41;100830.88;;;17.65;100.00
78016;BME280;67223;51.102;5.882;2023-10-13T06:10:25;100843.00;;;17.69;100.00
78016;BME280;67223;51.102;5.882;2023-10-13T06:13:09;100839.28;;;17.70;100.00
78016;BME280;67223;51.102;5.882;2023-10-13T06:15:53;100836.59;;;17.70;100.00
78016;BME280;67223;51.102;5.882;2023-10-13T06:18:37;100833.91;;;17.70;100.00
78016;BME280;67223;51.102;5.882;2023-10-13T06:21:21;100835.59;;;17.71;100.00
78016;BME280;67223;51.102;5.882;2023-10-13T06:24:06;100827.31;;;17.73;100.00
78016;BME280;67223;51.102;5.882;2023-10-13T06:26:51;100826.47;;;17.72;100.00
78016;BME280;67223;51.102;5.882;2023-10-13T06:29:37;100819.38;;;17.71;100.00
78016;BME280;67223;51.102;5.882;2023-10-13T06:32:03;100811.13;;;17.73;100.00
78016;BME280;67223;51.102;5.882;2023-10-13T06:34:38;100814.66;;;17.73;100.00
78016;BME280;67223;51.102;5.882;2023-10-13T06:37:16;100818.19;;;17.74;100.00
78016;BME280;67223;51.102;5.882;2023-10-13T06:39:56;100812.47;;;17.77;100.00
78016;BME280;67223;51.102;5.882;2023-10-13T06:42:28;100808.75;;;17.78;100.00
78016;BME280;67223;51.102;5.882;2023-10-13T06:44:57;100814.16;;;17.78;100.00
78016;BME280;67223;51.102;5.882;2023-10-13T06:47:25;100803.16;;;17.79;100.00
78016;BME280;67223;51.102;5.882;2023-10-13T06:49:53;100791.34;;;17.80;100.00
78016;BME280;67223;51.102;5.882;2023-10-13T06:52:20;100787.75;;;17.96;100.00
78016;BME280;67223;51.102;5.882;2023-10-13T06:54:50;100787.88;;;18.11;100.00
78016;BME280;67223;51.102;5.882;2023-10-13T06:57:15;100776.22;;;18.10;100.00
78016;BME280;67223;51.102;5.882;2023-10-13T06:59:46;100770.97;;;18.17;100.00
78016;BME280;67223;51.102;5.882;2023-10-13T07:02:12;100767.28;;;18.40;100.00
78016;BME280;67223;51.102;5.882;2023-10-13T07:04:47;100763.63;;;18.64;100.00
78016;BME280;67223;51.102;5.882;2023-10-13T07:07:12;100764.69;;;18.55;100.00
78016;BME280;67223;51.102;5.882;2023-10-13T07:09:42;100762.97;;;18.62;100.00
78016;BME280;67223;51.102;5.882;2023-10-13T07:12:25;100760.63;;;18.51;100.00
78016;BME280;67223;51.102;5.882;2023-10-13T07:14:52;100757.06;;;18.59;100.00
78016;BME280;67223;51.102;5.882;2023-10-13T07:17:18;100758.41;;;18.63;100.00
78016;BME280;67223;51.102;5.882;2023-10-13T07:19:52;100758.09;;;18.58;100.00
78016;BME280;67223;51.102;5.882;2023-10-13T07:22:19;100756.34;;;18.65;100.00
78016;BME280;67223;51.102;5.882;2023-10-13T07:24:49;100761.31;;;19.07;100.00
78016;BME280;67223;51.102;5.882;2023-10-13T07:29:49;100760.66;;;18.82;100.00
78016;BME280;67223;51.102;5.882;2023-10-13T07:32:21;100751.44;;;18.91;100.00
78016;BME280;67223;51.102;5.882;2023-10-13T07:34:49;100742.78;;;19.33;100.00
78016;BME280;67223;51.102;5.882;2023-10-13T07:37:16;100750.47;;;19.07;100.00
78016;BME280;67223;51.102;5.882;2023-10-13T07:39:41;100740.06;;;19.33;100.00
78016;BME280;67223;51.102;5.882;2023-10-13T07:42:08;100746.72;;;19.30;100.00
78016;BME280;67223;51.102;5.882;2023-10-13T07:44:40;100733.25;;;19.22;100.00
78016;BME280;67223;51.102;5.882;2023-10-13T07:47:11;100740.97;;;19.48;100.00
78016;BME280;67223;51.102;5.882;2023-10-13T07:49:38;100735.44;;;19.42;100.00
78016;BME280;67223;51.102;5.882;2023-10-13T07:52:08;100730.28;;;19.32;100.00
78016;BME280;67223;51.102;5.882;2023-10-13T07:54:48;100727.50;;;19.40;100.00
78016;BME280;67223;51.102;5.882;2023-10-13T07:57:34;100731.28;;;19.54;100.00
78016;BME280;67223;51.102;5.882;2023-10-13T08:00:01;100714.28;;;19.89;100.00
78016;BME280;67223;51.102;5.882;2023-10-13T08:02:36;100718.22;;;19.87;100.00
78016;BME280;67223;51.102;5.882;2023-10-13T08:05:14;100710.69;;;20.03;100.00
78016;BME280;67223;51.102;5.882;2023-10-13T08:07:50;100708.56;;;19.99;100.00
78016;BME280;67223;51.102;5.882;2023-10-13T08:10:17;100702.94;;;20.15;100.00
78016;BME280;67223;51.102;5.882;2023-10-13T08:12:42;100688.88;;;20.41;100.00
78016;BME280;67223;51.102;5.882;2023-10-13T08:15:09;100668.59;;;20.22;100.00
78016;BME280;67223;51.102;5.882;2023-10-13T08:17:46;100670.91;;;20.40;100.00
78016;BME280;67223;51.102;5.882;2023-10-13T08:20:11;100673.34;;;20.35;100.00
78016;BME280;67223;51.102;5.882;2023-10-13T08:22:37;100667.69;;;20.51;100.00
78016;BME280;67223;51.102;5.882;2023-10-13T08:25:04;100666.84;;;20.50;100.00
78016;BME280;67223;51.102;5.882;2023-10-13T08:28:07;100662.50;;;20.35;100.00
78016;BME280;67223;51.102;5.882;2023-10-13T08:30:51;100653.41;;;20.42;100.00
78016;BME280;67223;51.102;5.882;2023-10-13T08:33:17;100650.91;;;20.41;100.00
78016;BME280;67223;51.102;5.882;2023-10-13T08:35:44;100656.69;;;20.38;100.00
78016;BME280;67223;51.102;5.882;2023-10-13T08:38:28;100646.31;;;20.41;100.00
78016;BME280;67223;51.102;5.882;2023-10-13T08:41:08;100639.06;;;20.70;100.00
78016;BME280;67223;51.102;5.882;2023-10-13T08:43:42;100629.91;;;20.71;100.00
78016;BME280;67223;51.102;5.882;2023-10-13T08:46:10;100623.81;;;20.69;100.00
78016;BME280;67223;51.102;5.882;2023-10-13T08:48:50;100613.28;;;20.59;100.00
78016;BME280;67223;51.102;5.882;2023-10-13T08:51:17;100621.16;;;20.75;100.00
78016;BME280;67223;51.102;5.882;2023-10-13T08:54:02;100610.22;;;20.62;100.00
78016;BME280;67223;51.102;5.882;2023-10-13T08:56:34;100620.81;;;20.57;100.00
78016;BME280;67223;51.102;5.882;2023-10-13T08:59:01;100612.44;;;20.58;100.00
78016;BME280;67223;51.102;5.882;2023-10-13T09:01:36;100611.09;;;20.69;100.00
78016;BME280;67223;51.102;5.882;2023-10-13T09:04:18;100610.06;;;20.98;100.00
78016;BME280;67223;51.102;5.882;2023-10-13T09:06:47;100615.53;;;21.32;100.00
78016;BME280;67223;51.102;5.882;2023-10-13T09:09:29;100593.56;;;21.68;100.00
78016;BME280;67223;51.102;5.882;2023-10-13T09:14:43;100591.66;;;21.56;100.00
78016;BME280;67223;51.102;5.882;2023-10-13T09:17:22;100588.22;;;21.40;100.00
78016;BME280;67223;51.102;5.882;2023-10-13T09:20:05;100586.13;;;21.42;100.00
78016;BME280;67223;51.102;5.882;2023-10-13T09:22:54;100585.59;;;21.60;100.00
78016;BME280;67223;51.102;5.882;2023-10-13T09:25:34;100583.50;;;21.56;100.00
78016;BME280;67223;51.102;5.882;2023-10-13T09:28:13;100576.66;;;21.66;100.00
78016;BME280;67223;51.102;5.882;2023-10-13T09:30:51;100583.28;;;21.57;100.00
78016;BME280;67223;51.102;5.882;2023-10-13T09:33:29;100580.22;;;21.67;100.00
78016;BME280;67223;51.102;5.882;2023-10-13T09:36:03;100587.91;;;21.63;100.00
78016;BME280;67223;51.102;5.882;2023-10-13T09:38:32;100588.94;;;21.62;100.00
78016;BME280;67223;51.102;5.882;2023-10-13T09:40:58;100588.72;;;21.57;100.00
78016;BME280;67223;51.102;5.882;2023-10-13T09:43:35;100580.34;;;21.59;100.00
78016;BME280;67223;51.102;5.882;2023-10-13T09:46:04;100573.31;;;21.71;100.00
78016;BME280;67223;51.102;5.882;2023-10-13T09:48:38;100559.50;;;21.72;100.00
78016;BME280;67223;51.102;5.882;2023-10-13T09:51:15;100553.22;;;21.72;100.00
78016;BME280;67223;51.102;5.882;2023-10-13T09:53:51;100543.22;;;21.79;100.00
78016;BME280;67223;51.102;5.882;2023-10-13T09:56:25;100535.28;;;21.84;100.00
78016;BME280;67223;51.102;5.882;2023-10-13T09:59:08;100546.13;;;21.77;100.00
78016;BME280;67223;51.102;5.882;2023-10-13T10:01:40;100521.78;;;22.23;100.00
78016;BME280;67223;51.102;5.882;2023-10-13T10:04:16;100527.25;;;22.50;100.00
78016;BME280;67223;51.102;5.882;2023-10-13T10:06:56;100528.25;;;23.01;100.00
78016;BME280;67223;51.102;5.882;2023-10-13T10:09:32;100520.56;;;23.56;100.00
78016;BME280;67223;51.102;5.882;2023-10-13T10:12:42;100528.88;;;22.97;100.00
78016;BME280;67223;51.102;5.882;2023-10-13T10:15:32;100528.28;;;22.88;100.00
78016;BME280;67223;51.102;5.882;2023-10-13T10:18:00;100532.69;;;22.96;100.00
78016;BME280;67223;51.102;5.882;2023-10-13T10:20:36;100521.88;;;23.34;100.00
78016;BME280;67223;51.102;5.882;2023-10-13T10:23:09;100509.72;;;23.30;100.00
78016;BME280;67223;51.102;5.882;2023-10-13T10:25:38;100515.06;;;22.98;100.00
78016;BME280;67223;51.102;5.882;2023-10-13T10:28:10;100509.66;;;22.72;100.00
78016;BME280;67223;51.102;5.882;2023-10-13T10:30:41;100504.44;;;22.70;100.00
78016;BME280;67223;51.102;5.882;2023-10-13T10:33:08;100507.97;;;22.91;100.00
78016;BME280;67223;51.102;5.882;2023-10-13T10:35:45;100507.97;;;22.91;100.00
78016;BME280;67223;51.102;5.882;2023-10-13T10:38:13;100496.31;;;23.22;100.00
78016;BME280;67223;51.102;5.882;2023-10-13T10:43:28;100489.44;;;23.70;100.00
78016;BME280;67223;51.102;5.882;2023-10-13T10:46:07;100492.25;;;23.88;100.00
78016;BME280;67223;51.102;5.882;2023-10-13T10:48:33;100483.19;;;23.63;100.00
78016;BME280;67223;51.102;5.882;2023-10-13T10:51:00;100468.59;;;23.51;100.00
78016;BME280;67223;51.102;5.882;2023-10-13T10:53:33;100465.66;;;23.46;100.00
78016;BME280;67223;51.102;5.882;2023-10-13T10:56:09;100459.75;;;23.42;100.00
78016;BME280;67223;51.102;5.882;2023-10-13T10:58:49;100456.00;;;23.43;100.00
78016;BME280;67223;51.102;5.882;2023-10-13T11:01:24;100460.22;;;23.77;100.00
78016;BME280;67223;51.102;5.882;2023-10-13T11:03:58;100455.06;;;24.50;100.00
78016;BME280;67223;51.102;5.882;2023-10-13T11:06:27;100455.75;;;24.64;100.00
78016;BME280;67223;51.102;5.882;2023-10-13T11:09:06;100454.91;;;24.45;100.00
78016;BME280;67223;51.102;5.882;2023-10-13T11:11:47;100464.69;;;24.71;100.00
78016;BME280;67223;51.102;5.882;2023-10-13T11:14:28;100445.78;;;24.51;100.00
78016;BME280;67223;51.102;5.882;2023-10-13T11:16:55;100450.50;;;24.19;100.00
78016;BME280;67223;51.102;5.882;2023-10-13T11:19:42;100450.50;;;24.19;100.00
78016;BME280;67223;51.102;5.882;2023-10-13T11:24:40;100451.22;;;24.01;100.00
78016;BME280;67223;51.102;5.882;2023-10-13T11:27:15;100440.28;;;23.77;100.00
78016;BME280;67223;51.102;5.882;2023-10-13T11:29:46;100438.75;;;23.87;100.00
78016;BME280;67223;51.102;5.882;2023-10-13T11:32:17;100429.34;;;23.83;100.00
78016;BME280;67223;51.102;5.882;2023-10-13T11:34:45;100440.41;;;23.64;100.00
78016;BME280;67223;51.102;5.882;2023-10-13T11:37:10;100417.56;;;23.58;100.00
78016;BME280;67223;51.102;5.882;2023-10-13T11:40:03;100422.59;;;23.61;100.00
78016;BME280;67223;51.102;5.882;2023-10-13T11:42:35;100424.31;;;23.55;100.00
78016;BME280;67223;51.102;5.882;2023-10-13T11:45:01;100415.81;;;23.70;100.00
78016;BME280;67223;51.102;5.882;2023-10-13T11:47:47;100423.06;;;23.51;100.00
78016;BME280;67223;51.102;5.882;2023-10-13T11:50:13;100405.88;;;23.51;100.00
78016;BME280;67223;51.102;5.882;2023-10-13T11:52:39;100410.50;;;23.50;100.00
78016;BME280;67223;51.102;5.882;2023-10-13T11:55:05;100407.13;;;23.55;100.00
78016;BME280;67223;51.102;5.882;2023-10-13T11:57:32;100395.75;;;23.89;100.00
78016;BME280;67223;51.102;5.882;2023-10-13T11:59:57;100394.78;;;24.02;100.00
78016;BME280;67223;51.102;5.882;2023-10-13T12:02:41;100400.16;;;23.90;100.00
78016;BME280;67223;51.102;5.882;2023-10-13T12:05:25;100397.56;;;23.71;100.00
78016;BME280;67223;51.102;5.882;2023-10-13T12:08:03;100395.56;;;24.09;100.00
78016;BME280;67223;51.102;5.882;2023-10-13T12:10:29;100401.38;;;23.63;100.00
78016;BME280;67223;51.102;5.882;2023-10-13T12:13:05;100378.88;;;23.99;100.00
78016;BME280;67223;51.102;5.882;2023-10-13T12:15:35;100398.94;;;23.55;100.00
78016;BME280;67223;51.102;5.882;2023-10-13T12:18:14;100369.50;;;23.64;100.00
78016;BME280;67223;51.102;5.882;2023-10-13T12:20:40;100392.25;;;23.51;100.00
78016;BME280;67223;51.102;5.882;2023-10-13T12:23:11;100379.22;;;23.53;100.00
78016;BME280;67223;51.102;5.882;2023-10-13T12:25:40;100377.16;;;23.42;100.00
78016;BME280;67223;51.102;5.882;2023-10-13T12:28:25;100382.50;;;23.30;100.00
78016;BME280;67223;51.102;5.882;2023-10-13T12:30:55;100386.44;;;23.34;100.00
78016;BME280;67223;51.102;5.882;2023-10-13T12:33:23;100374.44;;;23.42;100.00
78016;BME280;67223;51.102;5.882;2023-10-13T12:36:00;100392.09;;;23.46;100.00
78016;BME280;67223;51.102;5.882;2023-10-13T12:38:32;100392.22;;;23.13;100.00
78016;BME280;67223;51.102;5.882;2023-10-13T12:41:16;100380.34;;;23.39;100.00
78016;BME280;67223;51.102;5.882;2023-10-13T12:44:00;100372.22;;;23.64;100.00
78016;BME280;67223;51.102;5.882;2023-10-13T12:46:44;100377.63;;;23.39;100.00
78016;BME280;67223;51.102;5.882;2023-10-13T12:49:28;100377.63;;;23.39;100.00
78016;BME280;67223;51.102;5.882;2023-10-13T12:52:14;100381.19;;;23.46;100.00
78016;BME280;67223;51.102;5.882;2023-10-13T12:54:50;100365.91;;;23.32;100.00
78016;BME280;67223;51.102;5.882;2023-10-13T12:57:25;100385.34;;;23.10;100.00
78016;BME280;67223;51.102;5.882;2023-10-13T12:59:52;100368.63;;;23.32;100.00
78016;BME280;67223;51.102;5.882;2023-10-13T13:02:21;100396.19;;;23.17;100.00
78016;BME280;67223;51.102;5.882;2023-10-13T13:04:46;100356.19;;;23.49;100.00
78016;BME280;67223;51.102;5.882;2023-10-13T13:07:16;100370.94;;;23.35;100.00
78016;BME280;67223;51.102;5.882;2023-10-13T13:09:42;100387.50;;;23.33;100.00
78016;BME280;67223;51.102;5.882;2023-10-13T13:12:07;100382.50;;;23.30;100.00
78016;BME280;67223;51.102;5.882;2023-10-13T13:14:33;100377.72;;;23.19;100.00
78016;BME280;67223;51.102;5.882;2023-10-13T13:17:01;100374.81;;;23.21;100.00
78016;BME280;67223;51.102;5.882;2023-10-13T13:19:34;100368.69;;;23.25;100.00
78016;BME280;67223;51.102;5.882;2023-10-13T13:22:04;100391.16;;;23.21;100.00
78016;BME280;67223;51.102;5.882;2023-10-13T13:24:31;100385.28;;;23.17;100.00
78016;BME280;67223;51.102;5.882;2023-10-13T13:26:57;100391.00;;;23.09;100.00
78016;BME280;67223;51.102;5.882;2023-10-13T13:29:28;100376.13;;;23.05;100.00
78016;BME280;67223;51.102;5.882;2023-10-13T13:31:54;100367.13;;;23.04;100.00